Time;durP1;ratioP1;P1;durP2;ratioP2;P2;SDS_P1;SDS_P2;PMS_P1;PMS_P2;Temp;Humidity;BMP_temperature;BMP_pressure;BME280_temperature;BME280_humidity;BME280_pressure;Samples;Min_cycle;Max_cycle;Signal;HPM_P1;HPM_P2
2024/02/14 00:01:48;;;;;;;22.42;14.73;;;;;;;-146.27;99.10;40206.13;5070543;28;20793;-73
2024/02/14 00:04:14;;;;;;;25.92;14.85;;;;;;;-146.27;98.85;40281.66;5069204;28;20430;-73
2024/02/14 00:06:39;;;;;;;19.13;13.48;;;;;;;-146.27;98.79;40174.31;5066568;28;20029;-73
2024/02/14 00:09:06;;;;;;;19.48;13.25;;;;;;;-146.27;99.77;40255.81;5070575;28;20030;-73
2024/02/14 00:11:32;;;;;;;18.10;13.48;;;;;;;-146.27;99.70;40237.94;5055679;28;20123;-73
2024/02/14 00:13:58;;;;;;;21.38;13.40;;;;;;;-146.27;100.00;40180.28;5069677;28;20107;-73
2024/02/14 00:16:24;;;;;;;21.83;13.65;;;;;;;-146.27;100.00;40132.59;5070703;28;20017;-73
2024/02/14 00:18:50;;;;;;;22.13;15.38;;;;;;;-146.27;100.00;40142.53;5069183;28;20090;-73
2024/02/14 00:21:16;;;;;;;23.27;14.93;;;;;;;-146.27;100.00;40082.91;5070826;28;20107;-73
2024/02/14 00:23:41;;;;;;;22.63;14.45;;;;;;;-146.27;99.33;40098.78;5066742;28;20250;-73
2024/02/14 00:26:07;;;;;;;23.95;15.85;;;;;;;-146.27;98.93;40023.25;5070847;28;20032;-73
2024/02/14 00:28:32;;;;;;;25.00;15.35;;;;;;;-146.27;98.97;40055.06;5070001;28;20086;-73
2024/02/14 00:30:58;;;;;;;20.48;15.20;;;;;;;-146.27;100.00;40170.34;5066475;28;20080;-73
2024/02/14 00:33:23;;;;;;;25.67;16.10;;;;;;;-146.27;100.00;40057.06;5073079;28;20029;-73
2024/02/14 00:35:49;;;;;;;26.20;17.45;;;;;;;-146.27;99.87;40033.22;5071190;28;20036;-73
2024/02/14 00:38:14;;;;;;;27.13;17.02;;;;;;;-146.27;99.80;40037.19;5073618;28;20048;-73
2024/02/14 00:40:40;;;;;;;27.98;16.65;;;;;;;-146.27;100.00;40136.56;5063696;28;20540;-74
2024/02/14 00:43:05;;;;;;;22.65;16.08;;;;;;;-146.27;100.00;40132.59;5069849;28;20028;-73
2024/02/14 00:45:30;;;;;;;33.60;18.65;;;;;;;-146.27;100.00;40011.34;5068250;28;20036;-72
2024/02/14 00:47:56;;;;;;;29.77;19.02;;;;;;;-146.27;100.00;39995.44;5068258;28;20140;-72
2024/02/14 00:50:21;;;;;;;29.00;19.85;;;;;;;-146.27;100.00;40039.16;5069497;28;20054;-72
2024/02/14 00:52:47;;;;;;;27.17;18.88;;;;;;;-146.27;99.69;40009.34;5069487;28;20112;-72
2024/02/14 00:55:12;;;;;;;32.25;20.83;;;;;;;-146.27;100.00;40023.25;5067983;28;20037;-72
2024/02/14 00:57:38;;;;;;;35.20;23.08;;;;;;;-146.27;100.00;39864.28;5069604;28;20048;-72
2024/02/14 01:00:06;;;;;;;30.58;20.58;;;;;;;-146.27;100.00;39951.72;5067681;28;20024;-72
2024/02/14 01:02:31;;;;;;;37.13;24.10;;;;;;;-146.27;100.00;39995.44;5066290;28;20100;-73
2024/02/14 01:04:57;;;;;;;34.38;22.38;;;;;;;-146.27;100.00;39991.47;5074117;28;20059;-72
2024/02/14 01:07:22;;;;;;;32.20;23.17;;;;;;;-146.27;100.00;39943.78;5069011;28;20024;-72
2024/02/14 01:09:48;;;;;;;37.38;22.20;;;;;;;-146.27;100.00;39935.81;5068138;28;20049;-73
2024/02/14 01:12:13;;;;;;;35.20;21.27;;;;;;;-146.27;100.00;39979.53;5068610;28;20031;-72
2024/02/14 01:14:38;;;;;;;32.90;20.90;;;;;;;-146.27;100.00;39878.19;5060775;28;20052;-72
2024/02/14 01:17:04;;;;;;;28.02;20.25;;;;;;;-146.27;99.70;39832.47;5068436;28;20043;-72
2024/02/14 01:19:29;;;;;;;33.30;19.33;;;;;;;-146.27;99.48;39882.16;5068293;28;20037;-72
2024/02/14 01:21:57;;;;;;;31.08;18.55;;;;;;;-146.27;99.87;39900.03;5067967;28;20021;-72
2024/02/14 01:24:26;;;;;;;26.35;16.38;;;;;;;-146.27;100.00;39862.28;5075218;28;20078;-72
2024/02/14 01:26:53;;;;;;;25.55;16.60;;;;;;;-146.27;100.00;39888.13;5068655;28;20020;-72
2024/02/14 01:29:19;;;;;;;28.30;16.05;;;;;;;-146.27;100.00;39830.47;5069334;28;20032;-72
2024/02/14 01:31:45;;;;;;;25.67;16.25;;;;;;;-146.27;99.72;39776.81;5068811;28;20055;-73
2024/02/14 01:34:10;;;;;;;22.23;16.08;;;;;;;-146.27;99.48;39772.84;5059854;28;20060;-72
2024/02/14 01:36:38;;;;;;;23.05;15.43;;;;;;;-146.27;99.15;39812.59;5063776;28;20043;-72
2024/02/14 01:39:06;;;;;;;21.45;16.58;;;;;;;-146.27;99.83;39794.72;5067090;28;20032;-72
2024/02/14 01:41:32;;;;;;;19.60;14.82;;;;;;;-146.27;99.99;39874.22;5061744;28;20039;-73
2024/02/14 01:43:59;;;;;;;24.50;16.02;;;;;;;-146.27;99.32;39794.72;5069325;28;20534;-72
2024/02/14 01:46:24;;;;;;;25.38;15.85;;;;;;;-146.27;99.80;39820.53;5068822;28;20111;-72
2024/02/14 01:48:50;;;;;;;23.17;15.65;;;;;;;-146.27;100.00;39808.63;5062890;28;20560;-73
2024/02/14 01:51:19;;;;;;;23.02;16.02;;;;;;;-146.27;100.00;39921.91;5069086;28;20112;-72
2024/02/14 01:53:45;;;;;;;24.65;16.13;;;;;;;-146.27;100.00;39764.91;5068241;28;20033;-72
2024/02/14 01:56:10;;;;;;;18.42;14.52;;;;;;;-146.27;99.22;39780.81;5067712;28;20113;-72
2024/02/14 01:58:37;;;;;;;28.70;15.00;;;;;;;-146.27;99.51;39840.41;5068119;28;20016;-73
2024/02/14 02:01:04;;;;;;;21.63;14.07;;;;;;;-146.27;99.98;39747.00;5069796;28;20552;-72
2024/02/14 02:03:30;;;;;;;21.75;14.40;;;;;;;-146.27;100.00;39800.66;5069542;28;20024;-74
2024/02/14 02:05:55;;;;;;;21.88;13.57;;;;;;;-146.27;100.00;39717.19;5069085;28;20487;-73
2024/02/14 02:08:22;;;;;;;22.77;13.30;;;;;;;-146.27;99.22;39770.84;5069431;28;20036;-74
2024/02/14 02:10:47;;;;;;;21.15;13.13;;;;;;;-146.27;99.71;39737.06;5067685;28;20100;-74
2024/02/14 02:13:15;;;;;;;20.15;12.38;;;;;;;-146.27;99.07;39639.69;5068886;28;20107;-74
2024/02/14 02:15:40;;;;;;;17.55;11.63;;;;;;;-146.27;100.00;39725.16;5069581;28;20017;-74
2024/02/14 02:18:06;;;;;;;16.67;12.38;;;;;;;-146.27;99.39;39655.59;5067876;28;20043;-74
2024/02/14 02:20:32;;;;;;;20.27;12.05;;;;;;;-146.27;99.36;39709.25;5068838;28;20070;-74
2024/02/14 02:22:58;;;;;;;18.17;12.15;;;;;;;-146.27;100.00;39756.94;5068442;28;20048;-73
2024/02/14 02:25:26;;;;;;;19.02;13.13;;;;;;;-146.27;100.00;39727.13;5067817;28;20032;-74
2024/02/14 02:27:54;;;;;;;19.85;12.15;;;;;;;-146.27;100.00;39617.84;5077499;28;20032;-74
2024/02/14 02:30:20;;;;;;;16.13;11.73;;;;;;;-146.27;100.00;39667.53;5067799;28;20028;-73
2024/02/14 02:32:45;;;;;;;21.38;11.95;;;;;;;-146.27;100.00;39647.66;5069768;28;20654;-74
2024/02/14 02:35:11;;;;;;;23.15;11.65;;;;;;;-146.27;100.00;39635.72;5068795;28;20123;-73
2024/02/14 02:37:36;;;;;;;20.08;11.05;;;;;;;-146.27;100.00;39681.44;5072294;28;20024;-74
2024/02/14 02:40:02;;;;;;;22.27;10.95;;;;;;;-146.27;100.00;39617.84;5067371;28;20047;-74
2024/02/14 02:42:29;;;;;;;26.33;12.55;;;;;;;-146.27;100.00;39558.22;5067565;28;20062;-73
2024/02/14 02:44:54;;;;;;;16.80;10.85;;;;;;;-146.27;100.00;39538.34;5069235;28;20031;-75
2024/02/14 02:47:19;;;;;;;20.45;11.82;;;;;;;-146.27;100.00;39510.53;5069129;28;20048;-74
2024/02/14 02:49:45;;;;;;;27.83;11.85;;;;;;;-146.27;100.00;39508.53;5068350;28;20046;-74
2024/02/14 02:52:11;;;;;;;21.67;10.60;;;;;;;-146.27;100.00;39536.34;5071572;28;20468;-73
2024/02/14 02:54:40;;;;;;;28.67;12.00;;;;;;;-146.27;100.00;39480.72;5072747;28;20544;-74
2024/02/14 02:57:07;;;;;;;27.13;11.15;;;;;;;-146.27;100.00;39470.78;5071217;28;20555;-74
2024/02/14 02:59:32;;;;;;;30.92;9.43;;;;;;;-146.27;100.00;39482.69;5074533;28;20028;-73
2024/02/14 03:01:58;;;;;;;26.60;11.63;;;;;;;-146.27;100.00;39391.28;5072732;28;20502;-73
2024/02/14 03:04:24;;;;;;;26.67;10.07;;;;;;;-146.27;100.00;39419.09;5073677;28;20538;-74
2024/02/14 03:06:50;;;;;;;22.25;9.82;;;;;;;-146.27;100.00;39411.16;5072000;28;20056;-73
2024/02/14 03:09:17;;;;;;;37.05;9.90;;;;;;;-146.27;100.00;39341.59;5072378;28;20032;-74
2024/02/14 03:11:47;;;;;;;27.80;10.10;;;;;;;-146.27;100.00;39355.53;5072418;28;20036;-73
2024/02/14 03:14:13;;;;;;;26.38;8.65;;;;;;;-146.27;99.90;39327.69;5071240;28;20792;-74
2024/02/14 03:16:38;;;;;;;27.73;9.07;;;;;;;-146.27;100.00;39363.47;5069507;28;20024;-73
2024/02/14 03:19:04;;;;;;;21.05;7.72;;;;;;;-146.27;100.00;39371.41;5071333;28;20024;-73
2024/02/14 03:21:32;;;;;;;30.90;8.20;;;;;;;-146.27;100.00;39379.38;5068795;28;20017;-73
2024/02/14 03:23:58;;;;;;;22.85;7.25;;;;;;;-146.27;100.00;39361.47;5071744;28;20056;-73
2024/02/14 03:26:23;;;;;;;30.42;6.90;;;;;;;-146.27;100.00;39335.66;5071324;28;20029;-73
2024/02/14 03:28:48;;;;;;;29.38;7.20;;;;;;;-146.27;100.00;39270.06;5061763;28;20065;-74
2024/02/14 03:31:15;;;;;;;26.60;6.00;;;;;;;-146.27;100.00;39232.31;5067696;28;20029;-73
2024/02/14 03:33:41;;;;;;;26.58;6.68;;;;;;;-146.27;100.00;39280.00;5069643;28;20111;-75
2024/02/14 03:36:07;;;;;;;21.73;5.95;;;;;;;-146.27;100.00;39303.84;5070936;28;20499;-73
2024/02/14 03:38:32;;;;;;;22.70;6.90;;;;;;;-146.27;100.00;39234.31;5069506;28;20512;-73
2024/02/14 03:40:57;;;;;;;32.55;7.70;;;;;;;-146.27;100.00;39208.47;5070366;28;20029;-74
2024/02/14 03:43:27;;;;;;;29.13;6.20;;;;;;;-146.27;100.00;39323.72;5069309;28;20054;-72
2024/02/14 03:45:54;;;;;;;33.30;7.10;;;;;;;-146.27;100.00;39301.88;5054364;28;20029;-74
2024/02/14 03:48:19;;;;;;;26.45;7.13;;;;;;;-146.27;99.81;39192.56;5063503;28;20033;-74
2024/02/14 03:50:45;;;;;;;34.55;8.27;;;;;;;-146.27;99.38;39208.47;5072064;28;20028;-73
2024/02/14 03:53:11;;;;;;;29.52;7.82;;;;;;;-146.27;99.89;39174.69;5071457;28;20553;-74
2024/02/14 03:55:37;;;;;;;31.90;6.85;;;;;;;-146.27;99.86;39232.31;5071519;28;20738;-73
2024/02/14 03:58:04;;;;;;;24.95;6.38;;;;;;;-146.27;99.96;39200.53;5063851;28;20097;-74
2024/02/14 04:00:29;;;;;;;24.33;6.32;;;;;;;-146.27;99.98;39264.13;5071718;28;20033;-73
2024/02/14 04:02:58;;;;;;;27.23;8.48;;;;;;;-146.27;100.00;39140.91;5068158;28;20240;-73
2024/02/14 04:05:27;;;;;;;30.55;7.78;;;;;;;-146.27;99.67;39212.44;5062625;28;20033;-73
2024/02/14 04:07:53;;;;;;;17.73;6.40;;;;;;;-146.27;100.00;39252.19;5071250;28;20392;-73
2024/02/14 04:10:18;;;;;;;26.33;7.22;;;;;;;-146.27;99.00;39184.63;5070447;28;20025;-73
2024/02/14 04:12:44;;;;;;;25.05;6.50;;;;;;;-146.27;99.86;39176.69;5070794;28;20415;-73
2024/02/14 04:15:09;;;;;;;31.05;8.23;;;;;;;-146.27;100.00;39198.53;5070317;28;20035;-73
2024/02/14 04:17:34;;;;;;;28.08;6.80;;;;;;;-146.27;100.00;39264.13;5068609;28;20111;-73
2024/02/14 04:20:00;;;;;;;43.10;7.88;;;;;;;-146.27;100.00;39283.97;5070676;28;20583;-73
2024/02/14 04:22:25;;;;;;;18.90;7.10;;;;;;;-146.27;100.00;39236.28;5069405;28;20083;-73
2024/02/14 04:24:51;;;;;;;33.22;6.57;;;;;;;-146.27;100.00;39228.34;5069968;28;20051;-73
2024/02/14 04:27:16;;;;;;;17.50;5.30;;;;;;;-146.27;99.92;39172.69;5069252;28;20058;-72
2024/02/14 04:29:48;;;;;;;24.77;6.30;;;;;;;-146.27;98.92;39144.88;5070554;28;20028;-73
2024/02/14 04:32:14;;;;;;;26.48;6.18;;;;;;;-146.27;99.29;39162.78;5071495;28;20099;-73
2024/02/14 04:34:40;;;;;;;22.98;6.18;;;;;;;-146.27;98.28;39142.91;5069603;28;20115;-73
2024/02/14 04:37:12;;;;;;;24.33;6.88;;;;;;;-146.27;99.15;39186.63;5069409;28;20024;-73
2024/02/14 04:39:37;;;;;;;34.08;8.15;;;;;;;-146.27;98.66;39136.94;5069049;28;20047;-74
2024/02/14 04:42:04;;;;;;;24.73;6.60;;;;;;;-146.27;98.95;39077.31;5069967;28;20115;-73
2024/02/14 04:44:30;;;;;;;26.30;6.57;;;;;;;-146.27;99.05;39196.56;5070724;28;20035;-73
2024/02/14 04:46:58;;;;;;;21.88;6.20;;;;;;;-146.27;98.56;39178.66;5068195;28;20097;-73
2024/02/14 04:49:24;;;;;;;22.48;7.57;;;;;;;-146.27;99.69;39180.66;5069933;28;20043;-73
2024/02/14 04:51:50;;;;;;;25.23;7.22;;;;;;;-146.27;98.50;39079.31;5070740;28;20431;-73
2024/02/14 04:54:16;;;;;;;24.30;6.40;;;;;;;-146.27;100.00;39252.19;5070958;28;20028;-73
2024/02/14 04:56:42;;;;;;;17.05;7.40;;;;;;;-146.27;100.00;39266.09;5069865;28;20090;-73
2024/02/14 04:59:08;;;;;;;28.50;6.35;;;;;;;-146.27;99.32;39045.53;5065420;28;20055;-73
2024/02/14 05:01:34;;;;;;;20.50;6.13;;;;;;;-146.27;98.68;39059.44;5070677;28;20040;-73
2024/02/14 05:03:59;;;;;;;16.33;5.18;;;;;;;-146.27;99.33;39166.75;5069483;28;20024;-73
2024/02/14 05:06:25;;;;;;;25.10;5.50;;;;;;;-146.27;98.55;39045.53;5070012;28;20040;-73
2024/02/14 05:08:51;;;;;;;19.08;4.93;;;;;;;-146.27;98.25;39081.31;5068323;28;20024;-73
2024/02/14 05:11:17;;;;;;;19.73;4.72;;;;;;;-146.27;99.02;39091.22;5068569;28;20032;-73
2024/02/14 05:13:43;;;;;;;16.23;4.75;;;;;;;-146.27;99.24;39073.34;5067390;28;20056;-73
2024/02/14 05:16:10;;;;;;;25.08;5.85;;;;;;;-146.27;100.00;39156.81;5069106;28;20025;-74
2024/02/14 05:18:37;;;;;;;16.35;5.32;;;;;;;-146.27;100.00;39073.34;5068010;28;20063;-73
2024/02/14 05:21:06;;;;;;;18.50;4.60;;;;;;;-146.27;99.33;39146.88;5069804;28;20528;-73
2024/02/14 05:23:31;;;;;;;19.70;4.32;;;;;;;-146.27;99.00;39101.16;5067814;28;20051;-74
2024/02/14 05:25:57;;;;;;;23.50;5.40;;;;;;;-146.27;98.68;39021.69;5068630;28;20025;-73
2024/02/14 05:28:22;;;;;;;15.65;4.07;;;;;;;-146.27;98.33;39027.66;5068877;28;20360;-73
2024/02/14 05:30:47;;;;;;;18.73;4.32;;;;;;;-146.27;97.47;38946.19;5068468;28;21774;-73
2024/02/14 05:33:13;;;;;;;18.40;4.20;;;;;;;-146.27;98.21;38952.16;5068676;28;20024;-71
2024/02/14 05:35:38;;;;;;;16.83;4.63;;;;;;;-146.27;98.88;39105.16;5069452;28;20500;-73
2024/02/14 05:38:07;;;;;;;19.95;5.28;;;;;;;-146.27;98.68;39099.19;5066798;28;20101;-73
2024/02/14 05:40:39;;;;;;;18.58;4.55;;;;;;;-146.27;99.65;39123.03;5067443;28;20035;-73
2024/02/14 05:43:07;;;;;;;15.48;4.53;;;;;;;-146.27;98.47;39001.81;5057247;28;20028;-72
2024/02/14 05:45:32;;;;;;;20.00;4.50;;;;;;;-146.27;98.00;38981.94;5069237;28;20542;-73
2024/02/14 05:47:58;;;;;;;16.85;6.03;;;;;;;-146.27;97.56;39053.47;5068396;28;20051;-72
2024/02/14 05:50:23;;;;;;;16.95;5.00;;;;;;;-146.27;97.95;39119.06;5069192;28;20499;-73
2024/02/14 05:52:49;;;;;;;24.02;6.40;;;;;;;-146.27;98.76;39065.41;5067648;28;20028;-74
2024/02/14 05:55:14;;;;;;;19.60;6.82;;;;;;;-146.27;99.39;39142.91;5067835;28;20028;-72
2024/02/14 05:57:40;;;;;;;22.27;6.53;;;;;;;-146.27;99.29;39053.47;5066693;28;20033;-72
2024/02/14 06:00:06;;;;;;;30.27;7.05;;;;;;;-146.27;98.65;39097.19;5067962;28;20029;-72
2024/02/14 06:02:32;;;;;;;24.00;6.68;;;;;;;-146.27;98.34;38962.09;5068974;28;20032;-72
2024/02/14 06:04:57;;;;;;;29.40;8.27;;;;;;;-146.27;98.98;39144.88;5070752;28;20051;-71
2024/02/14 06:07:23;;;;;;;29.83;8.85;;;;;;;-146.27;98.94;39005.78;5066774;28;20021;-72
2024/02/14 06:09:48;;;;;;;18.80;8.20;;;;;;;-146.27;98.46;39099.19;5069062;28;20435;-73
2024/02/14 06:12:13;;;;;;;23.48;9.60;;;;;;;-146.27;97.70;39007.78;5065852;28;20562;-72
2024/02/14 06:14:39;;;;;;;29.10;9.82;;;;;;;-146.27;98.49;39029.63;5072685;28;20115;-72
2024/02/14 06:17:04;;;;;;;29.13;9.30;;;;;;;-146.27;99.00;39059.44;5068651;28;20399;-73
2024/02/14 06:19:30;;;;;;;26.35;9.88;;;;;;;-146.27;98.98;39045.53;5067923;28;20064;-72
2024/02/14 06:21:56;;;;;;;34.47;10.82;;;;;;;-146.27;99.15;39158.78;5064470;28;20033;-72
2024/02/14 06:24:21;;;;;;;30.88;9.73;;;;;;;-146.27;98.69;39011.75;5067822;28;20029;-72
2024/02/14 06:26:46;;;;;;;24.90;10.43;;;;;;;-146.27;97.86;38987.91;5073840;28;20120;-72
2024/02/14 06:29:12;;;;;;;33.85;10.77;;;;;;;-146.27;97.11;38942.22;5071068;28;20032;-73
2024/02/14 06:31:37;;;;;;;28.52;9.68;;;;;;;-146.27;97.34;38956.13;5067266;28;20032;-72
2024/02/14 06:34:03;;;;;;;24.17;9.68;;;;;;;-146.27;97.47;38993.88;5070940;28;20085;-72
2024/02/14 06:36:28;;;;;;;25.52;10.00;;;;;;;-146.27;96.87;39001.81;5067926;28;20020;-72
2024/02/14 06:38:53;;;;;;;29.90;10.65;;;;;;;-146.27;97.88;39021.69;5068325;28;20116;-71
2024/02/14 06:41:20;;;;;;;19.92;9.32;;;;;;;-146.27;98.24;39109.13;5077661;28;20021;-71
2024/02/14 06:43:45;;;;;;;25.88;10.88;;;;;;;-146.27;98.55;39073.34;5069684;28;20115;-73
2024/02/14 06:46:11;;;;;;;22.95;10.50;;;;;;;-146.27;97.64;38966.06;5072456;28;20422;-72
2024/02/14 06:48:36;;;;;;;20.88;10.52;;;;;;;-146.27;97.59;39013.75;5070569;28;20032;-72
2024/02/14 06:51:02;;;;;;;29.85;12.07;;;;;;;-146.27;99.00;39049.50;5070828;28;20048;-72
2024/02/14 06:53:27;;;;;;;26.75;12.80;;;;;;;-146.27;98.75;39053.47;5071682;28;20021;-72
2024/02/14 06:55:52;;;;;;;21.38;10.82;;;;;;;-146.27;97.62;39013.75;5064508;28;20554;-73
2024/02/14 06:58:18;;;;;;;20.88;11.68;;;;;;;-146.27;98.00;39103.16;5063866;28;20020;-72
2024/02/14 07:00:44;;;;;;;26.20;11.05;;;;;;;-146.27;98.07;38974.00;5063154;28;20113;-73
2024/02/14 07:03:09;;;;;;;25.17;12.23;;;;;;;-146.27;98.55;39146.88;5065123;28;20035;-73
2024/02/14 07:05:35;;;;;;;28.13;10.73;;;;;;;-146.27;98.76;39007.78;5069939;28;20488;-73
2024/02/14 07:08:01;;;;;;;30.95;10.98;;;;;;;-146.27;98.83;39192.56;5072578;28;20130;-72
2024/02/14 07:10:26;;;;;;;30.30;12.10;;;;;;;-146.27;98.59;38997.84;5070866;28;20028;-74
2024/02/14 07:12:52;;;;;;;22.02;11.15;;;;;;;-146.27;99.08;39101.16;5070655;28;20058;-74
2024/02/14 07:15:17;;;;;;;18.98;11.05;;;;;;;-146.27;98.36;38950.16;5075873;28;20025;-75
2024/02/14 07:17:43;;;;;;;22.90;11.20;;;;;;;-146.27;97.40;38989.91;5075129;28;20024;-74
2024/02/14 07:20:09;;;;;;;21.58;11.10;;;;;;;-146.27;96.80;39009.78;5070295;28;20028;-73
2024/02/14 07:22:35;;;;;;;19.67;10.57;;;;;;;-146.27;98.53;39105.16;5072012;28;20123;-74
2024/02/14 07:25:00;;;;;;;21.30;10.55;;;;;;;-146.27;97.72;39109.13;5073012;28;20358;-72
2024/02/14 07:27:26;;;;;;;22.33;10.20;;;;;;;-146.27;98.39;39121.03;5081666;28;20023;-73
2024/02/14 07:29:52;;;;;;;19.30;10.38;;;;;;;-146.27;97.56;39009.78;5070656;28;20048;-73
2024/02/14 07:32:17;;;;;;;22.88;10.80;;;;;;;-146.27;97.05;39043.53;5069457;28;20381;-74
2024/02/14 07:34:43;;;;;;;19.80;10.90;;;;;;;-146.27;98.09;39065.41;5068671;28;20032;-74
2024/02/14 07:37:08;;;;;;;19.52;10.45;;;;;;;-146.27;97.92;39117.06;5071025;28;20074;-73
2024/02/14 07:39:36;;;;;;;19.15;9.63;;;;;;;-146.27;98.83;39210.47;5071995;28;20031;-73
2024/02/14 07:42:02;;;;;;;18.98;9.48;;;;;;;-146.27;98.28;39103.16;5072089;28;20032;-73
2024/02/14 07:44:28;;;;;;;20.02;9.93;;;;;;;-146.27;97.30;39025.66;5071456;28;20032;-74
2024/02/14 07:46:53;;;;;;;21.88;10.25;;;;;;;-146.27;98.39;39144.88;5070396;28;20094;-74
2024/02/14 07:49:21;;;;;;;18.30;9.50;;;;;;;-146.27;98.14;39099.19;5070784;28;20059;-74
2024/02/14 07:51:46;;;;;;;18.48;9.30;;;;;;;-146.27;98.09;39156.81;5069386;28;20036;-73
2024/02/14 07:54:12;;;;;;;16.02;9.40;;;;;;;-146.27;99.32;39216.41;5065429;28;20020;-76
2024/02/14 07:56:37;;;;;;;17.13;10.25;;;;;;;-146.27;98.79;39105.16;5070014;28;20028;-74
2024/02/14 07:59:05;;;;;;;15.52;9.73;;;;;;;-146.27;99.37;39121.03;5070838;28;20024;-75
2024/02/14 08:01:31;;;;;;;20.02;10.27;;;;;;;-146.27;99.94;39206.47;5068735;28;20855;-75
2024/02/14 08:03:56;;;;;;;21.05;10.95;;;;;;;-146.27;99.99;39103.16;5071989;28;20023;-76
2024/02/14 08:06:21;;;;;;;21.95;10.40;;;;;;;-146.27;99.56;39125.00;5070747;28;20147;-74
2024/02/14 08:08:51;;;;;;;19.05;11.52;;;;;;;-146.27;99.78;39152.84;5067073;28;20472;-74
2024/02/14 08:11:17;;;;;;;18.40;10.55;;;;;;;-146.27;99.19;39172.69;5075005;28;20381;-74
2024/02/14 08:13:43;;;;;;;17.70;10.93;;;;;;;-146.27;100.00;39164.75;5070710;28;20099;-73
2024/02/14 08:16:08;;;;;;;18.85;10.30;;;;;;;-146.27;100.00;39164.75;5070844;28;20017;-73
2024/02/14 08:18:33;;;;;;;16.75;11.40;;;;;;;-146.27;100.00;39194.56;5069247;28;20503;-73
2024/02/14 08:20:59;;;;;;;23.50;11.65;;;;;;;-146.27;98.87;39075.34;5070339;28;20100;-73
2024/02/14 08:23:24;;;;;;;20.80;12.20;;;;;;;-146.27;99.47;39192.56;5068721;28;20091;-74
2024/02/14 08:25:50;;;;;;;19.40;11.80;;;;;;;-146.27;100.00;39204.50;5079228;28;20020;-74
2024/02/14 08:28:17;;;;;;;17.20;12.18;;;;;;;-146.27;100.00;39268.09;5079098;28;20031;-73
2024/02/14 08:30:43;;;;;;;13.48;9.82;;;;;;;-146.27;100.00;39262.13;5068117;28;20028;-74
2024/02/14 08:33:10;;;;;;;13.27;9.55;;;;;;;-146.27;99.38;39244.25;5071756;28;20373;-73
2024/02/14 08:35:36;;;;;;;12.90;9.13;;;;;;;-146.27;99.67;39309.81;5067977;28;20103;-73
2024/02/14 08:38:01;;;;;;;14.05;9.60;;;;;;;-146.27;100.00;39379.38;5072527;28;20439;-73
2024/02/14 08:40:26;;;;;;;15.75;10.90;;;;;;;-146.27;100.00;39405.19;5067219;28;20039;-74
2024/02/14 08:42:52;;;;;;;18.20;12.27;;;;;;;-146.27;100.00;39331.69;5064782;28;20029;-75
2024/02/14 08:45:17;;;;;;;21.60;13.32;;;;;;;-146.27;100.00;39391.28;5070122;28;20017;-74
2024/02/14 08:47:44;;;;;;;19.35;13.75;;;;;;;-146.27;100.00;39341.59;5070182;28;20017;-74
2024/02/14 08:50:10;;;;;;;22.27;14.80;;;;;;;-146.27;99.84;39353.53;5068204;28;20028;-74
2024/02/14 08:52:37;;;;;;;23.80;15.02;;;;;;;-146.27;100.00;39369.44;5074172;28;20392;-74
2024/02/14 08:55:03;;;;;;;26.50;16.35;;;;;;;-146.27;100.00;39417.13;5073183;28;20081;-74
2024/02/14 08:57:31;;;;;;;26.33;16.77;;;;;;;-146.27;99.75;39355.53;5069743;28;20020;-74
2024/02/14 08:59:56;;;;;;;29.58;18.35;;;;;;;-146.27;99.96;39357.50;5070928;28;20031;-73
2024/02/14 09:02:22;;;;;;;28.20;16.90;;;;;;;-146.27;100.00;39478.72;5069417;28;20028;-70
2024/02/14 09:04:48;;;;;;;28.73;18.63;;;;;;;-146.27;100.00;39379.38;5070091;28;20036;-72
2024/02/14 09:07:13;;;;;;;34.33;20.05;;;;;;;-146.27;100.00;39419.09;5071760;28;20012;-72
2024/02/14 09:09:41;;;;;;;33.78;20.60;;;;;;;-146.27;99.88;39345.59;5069973;28;20385;-73
2024/02/14 09:12:07;;;;;;;32.35;18.48;;;;;;;-146.27;100.00;39397.25;5071227;28;20392;-72
2024/02/14 09:14:33;;;;;;;29.98;17.50;;;;;;;-146.27;100.00;39460.84;5065207;28;20114;-73
2024/02/14 09:16:58;;;;;;;30.25;18.38;;;;;;;-146.27;100.00;39454.88;5064162;28;20046;-73
2024/02/14 09:19:25;;;;;;;27.15;15.93;;;;;;;-146.27;100.00;39601.94;5068392;28;20052;-71
2024/02/14 09:21:50;;;;;;;27.27;15.20;;;;;;;-146.27;100.00;39494.63;5070046;28;20400;-73
2024/02/14 09:24:16;;;;;;;23.25;14.82;;;;;;;-146.27;100.00;39423.09;5070380;28;20131;-71
2024/02/14 09:26:43;;;;;;;21.90;14.15;;;;;;;-146.27;99.33;39371.41;5067919;28;20101;-71
2024/02/14 09:29:09;;;;;;;20.40;13.63;;;;;;;-146.27;100.00;39484.69;5067384;28;20492;-71
2024/02/14 09:31:35;;;;;;;19.13;13.57;;;;;;;-146.27;100.00;39470.78;5067043;28;20025;-72
2024/02/14 09:34:00;;;;;;;20.75;14.00;;;;;;;-146.27;100.00;39601.94;5068494;28;20069;-73
2024/02/14 09:36:26;;;;;;;22.70;14.63;;;;;;;-146.27;100.00;39442.97;5072746;28;20438;-72
2024/02/14 09:38:51;;;;;;;21.00;14.68;;;;;;;-146.27;99.84;39490.66;5084979;28;20419;-72
2024/02/14 09:41:33;;;;;;;22.10;14.13;;;;;;;-146.27;100.00;39605.91;5082565;28;20017;-73
2024/02/14 09:43:58;;;;;;;19.13;13.35;;;;;;;-146.27;100.00;39530.41;5070067;28;20028;-72
2024/02/14 09:46:27;;;;;;;17.13;11.77;;;;;;;-146.27;100.00;39554.25;5068601;28;20027;-72
2024/02/14 09:48:54;;;;;;;18.17;12.25;;;;;;;-146.27;100.00;39540.34;5069195;28;20055;-72
2024/02/14 09:51:21;;;;;;;19.63;12.45;;;;;;;-146.27;100.00;39613.88;5070346;28;20482;-72
2024/02/14 09:53:48;;;;;;;20.33;13.05;;;;;;;-146.27;100.00;39617.84;5070174;28;20436;-72
2024/02/14 09:56:16;;;;;;;22.25;12.35;;;;;;;-146.27;100.00;39693.34;5068061;28;20386;-72
2024/02/14 09:58:42;;;;;;;19.48;12.82;;;;;;;-146.27;100.00;39534.38;5068004;28;20089;-71
2024/02/14 10:01:07;;;;;;;21.10;12.00;;;;;;;-146.27;99.89;39586.03;5069098;28;20032;-72
2024/02/14 10:03:34;;;;;;;19.17;12.15;;;;;;;-146.27;100.00;39601.94;5070254;28;20028;-72
2024/02/14 10:05:59;;;;;;;16.33;11.05;;;;;;;-146.27;100.00;39633.72;5069753;28;20060;-71
2024/02/14 10:08:26;;;;;;;16.80;11.77;;;;;;;-146.27;100.00;39611.88;5069806;28;20063;-72
2024/02/14 10:10:51;;;;;;;17.65;12.07;;;;;;;-146.27;100.00;39669.50;5069957;28;20035;-70
2024/02/14 10:13:17;;;;;;;14.80;11.15;;;;;;;-146.27;100.00;39729.13;5070087;28;20013;-70
2024/02/14 10:15:43;;;;;;;12.27;9.00;;;;;;;-146.27;100.00;39788.75;5068476;28;20553;-72
2024/02/14 10:18:09;;;;;;;14.85;9.45;;;;;;;-146.27;99.82;39727.13;5066693;28;20028;-72
2024/02/14 10:20:40;;;;;;;11.23;9.07;;;;;;;-146.27;99.77;39824.53;5067025;28;20036;-72
2024/02/14 10:23:08;;;;;;;10.60;8.10;;;;;;;-146.27;99.95;39758.94;5063261;28;20044;-72
2024/02/14 10:25:34;;;;;;;9.90;7.60;;;;;;;-146.27;100.00;39808.63;5072668;28;20527;-73
2024/02/14 10:28:10;;;;;;;9.57;7.32;;;;;;;-146.27;100.00;39772.84;5068702;28;20031;-71
2024/02/14 10:30:40;;;;;;;10.95;7.72;;;;;;;-146.27;100.00;39792.72;5067550;28;20127;-73
2024/02/14 10:33:07;;;;;;;8.95;6.97;;;;;;;-146.27;100.00;39868.25;5066407;28;20453;-72
2024/02/14 10:35:36;;;;;;;8.82;6.95;;;;;;;-146.27;100.00;39745.03;5068333;28;20536;-72
2024/02/14 10:38:02;;;;;;;11.80;6.75;;;;;;;-146.27;100.00;39792.72;5066521;28;20094;-71
2024/02/14 10:40:28;;;;;;;7.88;6.25;;;;;;;-146.27;100.00;39830.47;5069135;28;20028;-72
2024/02/14 10:42:55;;;;;;;9.15;6.72;;;;;;;-146.27;100.00;39967.63;5057268;28;20028;-72
2024/02/14 10:45:20;;;;;;;8.93;6.72;;;;;;;-146.27;100.00;39806.63;5066772;28;20070;-72
2024/02/14 10:47:48;;;;;;;7.95;6.47;;;;;;;-146.27;100.00;39917.94;5067422;28;20024;-74
2024/02/14 10:50:15;;;;;;;13.52;7.43;;;;;;;-146.27;100.00;39923.91;5066880;28;20032;-71
2024/02/14 10:52:41;;;;;;;10.38;7.22;;;;;;;-146.27;100.00;39906.00;5063846;28;20031;-72
2024/02/14 10:55:09;;;;;;;8.25;7.18;;;;;;;-146.27;100.00;39935.81;5065734;28;20620;-72
2024/02/14 10:57:34;;;;;;;9.25;7.65;;;;;;;-146.27;100.00;39772.84;5067629;28;20025;-72